TimeEST,TemperatureF,Dew PointF,Humidity,Sea Level PressureIn,VisibilityMPH,Wind Direction,Wind SpeedMPH,Gust SpeedMPH,PrecipitationIn,Events,Conditions,WindDirDegrees,DateUTC
12:51 AM,28.0,17.1,63,30.58,10.0,Calm,Calm,-,N/A,,Mostly Cloudy,0,2014-01-10 05:51:00
1:51 AM,28.0,17.1,63,30.57,10.0,Calm,Calm,-,N/A,,Overcast,0,2014-01-10 06:51:00
2:51 AM,30.0,18.0,61,30.57,10.0,Calm,Calm,-,N/A,,Overcast,0,2014-01-10 07:51:00
3:51 AM,28.9,19.9,69,30.56,10.0,NNE,5.8,-,N/A,,Overcast,30,2014-01-10 08:51:00
4:51 AM,28.9,18.0,64,30.51,10.0,NNE,3.5,-,N/A,,Overcast,30,2014-01-10 09:51:00
5:40 AM,28.4,19.4,69,30.51,10.0,NNE,4.6,-,0.00,Snow,Light Snow,20,2014-01-10 10:40:00
5:51 AM,28.9,18.0,64,30.50,10.0,NNE,3.5,-,0.00,Snow,Light Snow,20,2014-01-10 10:51:00
6:26 AM,30.2,19.4,64,30.50,10.0,NNE,4.6,-,0.00,Snow,Light Snow,20,2014-01-10 11:26:00
6:40 AM,30.2,19.4,64,30.50,7.0,NNE,3.5,-,0.00,Snow,Light Snow,20,2014-01-10 11:40:00
6:51 AM,30.0,19.0,64,30.50,7.0,North,3.5,-,N/A,Snow,Light Snow,10,2014-01-10 11:51:00
7:51 AM,30.0,21.0,69,30.48,3.0,NNE,4.6,-,0.00,Snow,Light Snow,20,2014-01-10 12:51:00
8:23 AM,30.2,21.2,69,30.49,7.0,Calm,Calm,-,0.00,Snow,Light Snow,0,2014-01-10 13:23:00
8:32 AM,30.2,21.2,69,30.49,7.0,North,3.5,-,0.00,Snow,Light Snow,10,2014-01-10 13:32:00
8:39 AM,30.2,21.2,69,30.50,6.0,North,4.6,-,0.00,,Light Freezing Drizzle,360,2014-01-10 13:39:00
8:51 AM,30.9,23.0,72,30.51,6.0,North,3.5,-,0.00,,Light Freezing Drizzle,360,2014-01-10 13:51:00
8:59 AM,30.2,23.0,75,30.51,5.0,North,4.6,-,0.01,Snow,Ice Pellets,360,2014-01-10 13:59:00
9:14 AM,30.2,24.8,80,30.50,3.0,NNE,3.5,-,0.03,Snow,Light Snow,20,2014-01-10 14:14:00
9:51 AM,32.0,27.0,82,30.50,3.0,NNE,3.5,-,0.07,Snow,Light Snow,30,2014-01-10 14:51:00
10:08 AM,30.2,26.6,86,30.49,3.0,NNE,5.8,-,0.01,Rain-Snow,Light Freezing Rain,20,2014-01-10 15:08:00
10:17 AM,30.2,26.6,86,30.49,3.0,NNE,4.6,-,0.01,Rain,Light Freezing Rain,30,2014-01-10 15:17:00
10:42 AM,30.2,28.4,93,30.48,3.0,North,3.5,-,0.02,,Light Freezing Drizzle,10,2014-01-10 15:42:00
10:51 AM,30.9,28.0,89,30.48,3.0,NNE,4.6,-,0.02,,Light Freezing Drizzle,20,2014-01-10 15:51:00
10:54 AM,30.2,28.4,93,30.48,3.0,NNE,4.6,-,0.00,Rain-Snow,Light Freezing Rain,20,2014-01-10 15:54:00
11:01 AM,30.2,28.4,93,30.47,3.0,NNE,3.5,-,0.00,,Light Freezing Drizzle,30,2014-01-10 16:01:00
11:40 AM,32.0,28.4,87,30.44,3.0,NNE,3.5,-,0.01,,Overcast,20,2014-01-10 16:40:00
11:51 AM,32.0,28.9,88,30.43,3.0,North,4.6,-,0.01,,Overcast,10,2014-01-10 16:51:00
12:45 PM,33.8,30.2,87,30.40,3.0,Calm,Calm,-,N/A,,Overcast,0,2014-01-10 17:45:00
12:51 PM,33.1,30.0,89,30.40,3.0,NNE,3.5,-,N/A,,Overcast,20,2014-01-10 17:51:00
12:58 PM,33.8,30.2,87,30.40,2.5,NNE,3.5,-,N/A,,Overcast,20,2014-01-10 17:58:00
1:09 PM,33.8,30.2,87,30.39,3.0,Calm,Calm,-,N/A,,Overcast,0,2014-01-10 18:09:00
1:49 PM,33.8,30.2,87,30.38,1.5,NNE,3.5,-,N/A,,Overcast,20,2014-01-10 18:49:00
1:51 PM,33.1,30.9,92,30.38,1.5,NNE,3.5,-,N/A,,Overcast,20,2014-01-10 18:51:00
2:15 PM,33.8,30.2,87,30.38,1.5,NNE,5.8,-,0.00,,Light Drizzle,20,2014-01-10 19:15:00
2:39 PM,33.8,30.2,87,30.38,1.0,NE,4.6,-,0.00,,Light Drizzle,40,2014-01-10 19:39:00
2:51 PM,33.1,30.9,92,30.37,1.0,NNE,4.6,-,0.00,,Light Drizzle,30,2014-01-10 19:51:00
3:51 PM,34.0,32.0,92,30.37,1.0,NNE,3.5,-,0.01,,Light Drizzle,20,2014-01-10 20:51:00
4:27 PM,33.8,32.0,93,30.35,1.0,NNE,4.6,-,0.00,,Light Drizzle,30,2014-01-10 21:27:00
4:51 PM,34.0,33.1,96,30.35,1.0,NE,3.5,-,0.01,,Light Drizzle,40,2014-01-10 21:51:00
5:51 PM,34.0,33.1,96,30.34,1.0,NNE,3.5,-,0.00,,Light Drizzle,30,2014-01-10 22:51:00
6:22 PM,33.8,33.8,100,30.34,0.8,NNE,4.6,-,0.00,,Light Drizzle,20,2014-01-10 23:22:00
6:39 PM,33.8,33.8,100,30.34,1.0,NNE,5.8,-,0.00,,Light Drizzle,30,2014-01-10 23:39:00
6:51 PM,34.0,33.1,96,30.34,1.0,North,4.6,-,0.00,,Light Drizzle,10,2014-01-10 23:51:00
7:32 PM,33.8,33.8,100,30.33,0.8,NNE,5.8,-,0.00,,Light Drizzle,30,2014-01-11 00:32:00
7:51 PM,34.0,34.0,100,30.32,0.8,NNE,5.8,-,0.00,,Light Drizzle,30,2014-01-11 00:51:00
8:51 PM,35.1,34.0,96,30.30,0.8,NNE,3.5,-,0.01,,Light Drizzle,30,2014-01-11 01:51:00
9:40 PM,33.8,33.8,100,30.29,0.8,NNE,5.8,-,0.01,,Light Drizzle,30,2014-01-11 02:40:00
9:51 PM,34.0,34.0,100,30.29,0.8,NNE,5.8,-,0.01,,Light Drizzle,30,2014-01-11 02:51:00
10:13 PM,35.6,33.8,93,30.28,1.0,NNE,5.8,-,0.00,,Light Drizzle,30,2014-01-11 03:13:00
10:38 PM,33.8,33.8,100,30.26,1.0,NNE,5.8,-,0.00,,Light Drizzle,30,2014-01-11 03:38:00
10:51 PM,34.0,34.0,100,30.25,1.0,NNE,6.9,-,0.01,Rain,Light Rain,20,2014-01-11 03:51:00
11:51 PM,35.1,34.0,96,30.22,1.0,NNE,3.5,-,0.01,Rain,Light Rain,20,2014-01-11 04:51:00